createdAt,value
2017-11-06T00:00:58.784Z,80.10
2017-11-06T00:03:26.244Z,82.80
2017-11-06T00:05:52.932Z,83.90
2017-11-06T00:08:19.617Z,85.10
2017-11-06T00:10:46.290Z,85.30
2017-11-06T00:13:13.685Z,86.50
2017-11-06T00:15:40.346Z,86.50
2017-11-06T00:18:06.977Z,87.30
2017-11-06T00:20:33.842Z,88.10
2017-11-06T00:23:00.495Z,88.60
2017-11-06T00:25:27.161Z,86.20
2017-11-06T00:27:55.017Z,88.70
2017-11-06T00:30:21.764Z,87.70
2017-11-06T00:32:48.424Z,88.20
2017-11-06T00:35:16.441Z,89.00
2017-11-06T00:37:43.215Z,89.00
2017-11-06T00:40:10.518Z,89.70
2017-11-06T00:42:37.171Z,90.00
2017-11-06T00:45:04.375Z,90.10
2017-11-06T00:47:31.071Z,90.30
2017-11-06T00:49:57.707Z,90.30
2017-11-06T00:52:24.363Z,90.40
2017-11-06T00:54:51.118Z,90.60
2017-11-06T00:57:17.761Z,90.60
2017-11-06T00:59:44.429Z,90.70
2017-11-06T01:02:13.340Z,90.30
2017-11-06T01:04:39.955Z,90.30
2017-11-06T01:07:07.001Z,90.20
2017-11-06T01:09:33.658Z,90.40
2017-11-06T01:12:00.413Z,90.50
2017-11-06T01:14:27.084Z,90.30
2017-11-06T01:16:53.723Z,90.50
2017-11-06T01:19:21.110Z,90.80
2017-11-06T01:21:47.782Z,91.10
2017-11-06T01:24:14.443Z,90.90
2017-11-06T01:26:41.371Z,91.20
2017-11-06T01:29:14.986Z,91.20
2017-11-06T01:31:41.624Z,91.50
2017-11-06T01:34:08.280Z,91.60
2017-11-06T01:36:34.927Z,91.90
2017-11-06T01:39:01.576Z,91.70
2017-11-06T01:41:28.952Z,92.10
2017-11-06T01:43:55.654Z,92.10
2017-11-06T01:46:22.287Z,91.70
2017-11-06T01:48:48.992Z,91.50
2017-11-06T01:51:15.686Z,91.40
2017-11-06T01:53:43.083Z,91.00
2017-11-06T01:56:10.460Z,91.30
2017-11-06T01:58:37.129Z,91.30
2017-11-06T02:01:03.772Z,91.40
2017-11-06T02:03:30.404Z,91.70
2017-11-06T02:05:57.238Z,91.90
2017-11-06T02:08:23.873Z,91.80
2017-11-06T02:10:51.180Z,92.00
2017-11-06T02:13:17.856Z,92.00
2017-11-06T02:15:45.233Z,92.10
2017-11-06T02:18:11.866Z,92.10
2017-11-06T02:20:38.587Z,92.10
2017-11-06T02:23:05.239Z,92.30
2017-11-06T02:25:32.739Z,92.20
2017-11-06T02:27:59.427Z,92.20
2017-11-06T02:30:29.127Z,92.20
2017-11-06T02:32:55.882Z,92.10
2017-11-06T02:35:22.600Z,92.40
2017-11-06T02:37:49.256Z,92.50
2017-11-06T02:40:15.894Z,92.50
2017-11-06T02:42:42.607Z,92.70
2017-11-06T02:45:09.259Z,92.70
2017-11-06T02:47:35.892Z,92.80
2017-11-06T02:50:02.589Z,93.00
2017-11-06T02:52:29.995Z,92.80
2017-11-06T02:54:56.645Z,92.80
2017-11-06T02:57:23.330Z,92.70
2017-11-06T02:59:49.958Z,93.10
2017-11-06T03:02:16.656Z,93.00
2017-11-06T03:04:43.341Z,92.90
2017-11-06T03:07:09.983Z,93.10
2017-11-06T03:09:36.611Z,93.40
2017-11-06T03:12:03.272Z,93.60
2017-11-06T03:14:29.937Z,94.00
2017-11-06T03:16:57.310Z,93.60
2017-11-06T03:19:24.100Z,93.60
2017-11-06T03:21:50.781Z,93.30
2017-11-06T03:24:18.172Z,93.30
2017-11-06T03:26:44.837Z,93.20
2017-11-06T03:29:11.470Z,93.80
2017-11-06T03:31:38.469Z,93.80
2017-11-06T03:34:05.883Z,93.60
2017-11-06T03:36:32.489Z,93.60
2017-11-06T03:38:59.883Z,93.80
2017-11-06T03:41:26.558Z,93.70
2017-11-06T03:43:54.138Z,93.50
2017-11-06T03:46:21.501Z,93.20
2017-11-06T03:48:49.723Z,93.60
2017-11-06T03:51:16.370Z,93.60
2017-11-06T03:53:49.978Z,93.90
2017-11-06T03:56:16.605Z,94.00
2017-11-06T03:58:44.104Z,94.00
2017-11-06T04:01:10.752Z,94.30
2017-11-06T04:03:37.394Z,94.20
2017-11-06T04:06:04.746Z,94.20
2017-11-06T04:08:31.406Z,94.20
2017-11-06T04:10:58.019Z,94.40
2017-11-06T04:13:24.646Z,94.50
2017-11-06T04:15:51.294Z,94.60
2017-11-06T04:18:17.930Z,94.60
2017-11-06T04:20:44.559Z,94.80
2017-11-06T04:23:11.297Z,94.80
2017-11-06T04:25:37.929Z,94.80
2017-11-06T04:28:04.702Z,94.70
2017-11-06T04:30:31.498Z,94.80
2017-11-06T04:32:58.922Z,94.70
2017-11-06T04:35:25.606Z,94.70
2017-11-06T04:37:53.038Z,94.40
2017-11-06T04:40:19.683Z,94.40
2017-11-06T04:42:47.265Z,94.30
2017-11-06T04:45:14.673Z,94.50
2017-11-06T04:47:41.344Z,94.50
2017-11-06T04:50:08.023Z,94.40
2017-11-06T04:52:35.539Z,94.50
2017-11-06T04:55:02.175Z,94.50
2017-11-06T04:57:28.812Z,94.80
2017-11-06T04:59:55.471Z,95.00
2017-11-06T05:02:22.095Z,95.00
2017-11-06T05:04:48.752Z,94.90
2017-11-06T05:07:15.443Z,95.20
2017-11-06T05:09:42.220Z,95.20
2017-11-06T05:12:08.860Z,95.40
2017-11-06T05:14:35.529Z,95.50
2017-11-06T05:17:02.163Z,95.00
2017-11-06T05:19:28.795Z,94.70
2017-11-06T05:21:55.477Z,94.70
2017-11-06T05:24:22.127Z,94.70
2017-11-06T05:26:48.766Z,94.50
2017-11-06T05:29:16.145Z,94.40
2017-11-06T05:31:42.760Z,94.40
2017-11-06T05:34:09.410Z,94.10
2017-11-06T05:36:36.866Z,94.40
2017-11-06T05:39:04.291Z,94.50
2017-11-06T05:41:30.970Z,94.50
2017-11-06T05:43:57.606Z,94.30
2017-11-06T05:46:24.258Z,94.10
2017-11-06T05:48:51.640Z,93.70
2017-11-06T05:51:18.310Z,93.60
2017-11-06T05:53:44.944Z,93.90
2017-11-06T05:56:11.596Z,94.20
2017-11-06T05:58:38.280Z,94.00
2017-11-06T06:01:05.678Z,94.40
2017-11-06T06:03:32.319Z,94.30
2017-11-06T06:05:58.994Z,94.40
2017-11-06T06:08:25.655Z,94.10
2017-11-06T06:10:52.296Z,94.30
2017-11-06T06:13:18.989Z,94.40
2017-11-06T06:15:45.651Z,94.50
2017-11-06T06:18:13.180Z,94.60
2017-11-06T06:20:40.600Z,94.30
2017-11-06T06:23:07.222Z,94.20
2017-11-06T06:25:33.912Z,94.50
2017-11-06T06:28:01.340Z,94.10
2017-11-06T06:30:28.053Z,94.10
2017-11-06T06:32:54.724Z,94.30
2017-11-06T06:35:21.364Z,94.20
2017-11-06T06:37:48.024Z,94.20
2017-11-06T06:40:14.673Z,94.30
2017-11-06T06:42:41.392Z,94.10
2017-11-06T06:45:08.094Z,94.10
2017-11-06T06:47:34.735Z,94.20
2017-11-06T06:50:01.377Z,94.50
2017-11-06T06:52:28.029Z,94.30
2017-11-06T06:54:54.728Z,93.80
2017-11-06T06:57:21.996Z,93.90
2017-11-06T06:59:49.403Z,93.90
2017-11-06T07:02:16.080Z,93.80
2017-11-06T07:04:42.743Z,94.20
2017-11-06T07:07:10.137Z,94.30
2017-11-06T07:09:36.801Z,94.30
2017-11-06T07:12:03.478Z,94.40
2017-11-06T07:14:30.157Z,94.30
2017-11-06T07:16:56.806Z,94.20
2017-11-06T07:19:23.527Z,94.50
2017-11-06T07:21:50.170Z,94.40
2017-11-06T07:24:17.566Z,94.60
2017-11-06T07:26:44.226Z,94.60
2017-11-06T07:29:10.937Z,94.70
2017-11-06T07:31:37.561Z,95.00
2017-11-06T07:34:04.232Z,95.00
2017-11-06T07:36:30.870Z,95.00
2017-11-06T07:38:58.487Z,94.90
2017-11-06T07:41:26.234Z,94.70
2017-11-06T07:43:52.863Z,94.70
2017-11-06T07:46:19.512Z,94.90
2017-11-06T07:48:46.154Z,94.70
2017-11-06T07:51:13.154Z,94.70
2017-11-06T07:53:39.822Z,94.60
2017-11-06T07:56:06.541Z,94.50
2017-11-06T07:58:33.213Z,94.30
2017-11-06T08:00:59.835Z,94.30
2017-11-06T08:03:26.506Z,94.20
2017-11-06T08:05:53.870Z,94.00
2017-11-06T08:08:20.498Z,94.00
2017-11-06T08:10:47.151Z,94.20
2017-11-06T08:13:13.790Z,94.50
2017-11-06T08:15:40.426Z,94.60
2017-11-06T08:18:07.068Z,94.20
2017-11-06T08:20:33.723Z,94.00
2017-11-06T08:23:00.371Z,94.00
2017-11-06T08:25:27.902Z,94.00
2017-11-06T08:27:54.534Z,94.00
2017-11-06T08:30:21.937Z,93.80
2017-11-06T08:32:48.642Z,93.80
2017-11-06T08:35:15.318Z,93.70
2017-11-06T08:37:41.967Z,93.90
2017-11-06T08:40:08.639Z,93.50
2017-11-06T08:42:36.007Z,93.40
2017-11-06T08:45:02.698Z,93.40
2017-11-06T08:47:30.296Z,93.90
2017-11-06T08:49:56.954Z,93.90
2017-11-06T08:52:24.395Z,93.60
2017-11-06T08:54:51.043Z,93.60
2017-11-06T08:57:17.684Z,93.60
2017-11-06T08:59:45.097Z,93.90
2017-11-06T09:02:11.754Z,93.80
2017-11-06T09:04:38.387Z,94.00
2017-11-06T09:07:05.002Z,93.80
2017-11-06T09:09:31.667Z,93.90
2017-11-06T09:11:58.315Z,94.00
2017-11-06T09:14:24.949Z,93.80
2017-11-06T09:16:51.603Z,94.00
2017-11-06T09:19:18.238Z,93.70
2017-11-06T09:21:44.867Z,93.30
2017-11-06T09:24:11.639Z,92.90
2017-11-06T09:26:38.258Z,92.50
2017-11-06T09:29:04.924Z,93.20
2017-11-06T09:31:31.602Z,92.90
2017-11-06T09:33:58.967Z,92.90
2017-11-06T09:36:26.340Z,92.80
2017-11-06T09:38:52.994Z,92.80
2017-11-06T09:41:19.606Z,91.70
2017-11-06T09:43:46.983Z,91.90
2017-11-06T09:46:13.740Z,91.90
2017-11-06T09:48:40.399Z,91.20
2017-11-06T09:51:07.059Z,91.20
2017-11-06T09:53:33.732Z,90.50
2017-11-06T09:56:01.103Z,90.60
2017-11-06T09:58:28.823Z,90.90
2017-11-06T10:00:55.468Z,90.90
2017-11-06T10:03:22.137Z,91.00
2017-11-06T10:05:49.550Z,90.50
2017-11-06T10:08:16.261Z,90.40
2017-11-06T10:10:42.903Z,90.60
2017-11-06T10:13:09.540Z,90.40
2017-11-06T10:15:36.326Z,88.70
2017-11-06T10:18:02.972Z,90.10
2017-11-06T10:20:30.338Z,90.00
2017-11-06T10:22:57.020Z,90.00
2017-11-06T10:25:24.414Z,89.60
2017-11-06T10:27:51.043Z,89.60
2017-11-06T10:30:17.722Z,90.20
2017-11-06T10:32:44.395Z,90.20
2017-11-06T10:35:11.018Z,90.10
2017-11-06T10:37:39.774Z,89.70
2017-11-06T10:40:06.445Z,89.90
2017-11-06T10:42:33.075Z,88.90
2017-11-06T10:44:59.755Z,87.50
2017-11-06T10:47:26.469Z,88.60
2017-11-06T10:49:53.179Z,90.00
2017-11-06T10:52:19.886Z,88.50
2017-11-06T10:54:46.542Z,88.50
2017-11-06T10:57:13.961Z,88.70
2017-11-06T10:59:40.673Z,88.70
2017-11-06T11:02:07.307Z,88.90
2017-11-06T11:04:34.011Z,89.10
2017-11-06T11:07:00.702Z,89.00
2017-11-06T11:09:27.356Z,89.60
2017-11-06T11:11:54.021Z,88.10
2017-11-06T11:14:20.699Z,86.70
2017-11-06T11:16:48.187Z,87.50
2017-11-06T11:19:15.741Z,87.30
2017-11-06T11:21:42.408Z,88.00
2017-11-06T11:24:09.082Z,88.30
2017-11-06T11:26:35.849Z,86.90
2017-11-06T11:29:02.514Z,87.40
2017-11-06T11:31:29.161Z,87.30
2017-11-06T11:33:55.876Z,87.30
2017-11-06T11:36:23.306Z,88.70
2017-11-06T11:38:49.966Z,88.70
2017-11-06T11:41:16.647Z,89.90
2017-11-06T11:43:43.295Z,86.10
2017-11-06T11:46:09.939Z,87.80
2017-11-06T11:48:36.586Z,88.00
2017-11-06T11:51:03.350Z,87.10
2017-11-06T11:53:30.045Z,88.10
2017-11-06T11:55:57.440Z,88.50
2017-11-06T11:58:24.114Z,88.50
2017-11-06T12:00:50.862Z,86.50
2017-11-06T12:03:17.532Z,86.40
2017-11-06T12:05:44.938Z,86.70
2017-11-06T12:08:11.614Z,86.60
2017-11-06T12:10:38.361Z,88.30
2017-11-06T12:13:05.036Z,87.60
2017-11-06T12:15:32.090Z,86.70
2017-11-06T12:17:58.797Z,87.80
2017-11-06T12:20:25.509Z,88.10
2017-11-06T12:22:52.132Z,88.20
2017-11-06T12:25:19.258Z,87.90
2017-11-06T12:27:46.683Z,86.90
2017-11-06T12:30:13.391Z,86.10
2017-11-06T12:32:40.021Z,85.90
2017-11-06T12:35:06.687Z,87.20
2017-11-06T12:37:33.318Z,89.90
2017-11-06T12:40:00.020Z,90.10
2017-11-06T12:42:27.558Z,89.90
2017-11-06T12:44:54.229Z,89.90
2017-11-06T12:47:21.634Z,90.60
2017-11-06T12:49:48.287Z,90.60
2017-11-06T12:52:14.926Z,91.30
2017-11-06T12:54:41.847Z,91.40
2017-11-06T12:57:08.569Z,91.50
2017-11-06T12:59:35.995Z,91.30
2017-11-06T13:02:02.674Z,91.30
2017-11-06T13:04:30.143Z,91.40
2017-11-06T13:06:57.602Z,91.60
2017-11-06T13:09:24.971Z,91.80
2017-11-06T13:11:51.655Z,91.80
2017-11-06T13:14:18.311Z,91.40
2017-11-06T13:16:45.851Z,91.70
2017-11-06T13:19:12.531Z,91.50
2017-11-06T13:21:39.188Z,91.70
2017-11-06T13:24:06.583Z,91.60
2017-11-06T13:26:33.265Z,91.60
2017-11-06T13:28:59.902Z,91.90
2017-11-06T13:31:26.534Z,92.20
2017-11-06T13:33:53.191Z,91.90
2017-11-06T13:36:20.080Z,92.30
2017-11-06T13:38:46.730Z,92.70
2017-11-06T13:41:13.562Z,92.80
2017-11-06T13:43:40.204Z,92.90
2017-11-06T13:46:06.834Z,92.50
2017-11-06T13:48:34.235Z,93.30
2017-11-06T13:51:00.864Z,93.30
2017-11-06T13:53:27.648Z,93.10
2017-11-06T13:55:54.331Z,93.50
2017-11-06T13:58:21.732Z,93.20
2017-11-06T14:00:48.400Z,93.20
2017-11-06T14:03:15.113Z,93.00
2017-11-06T14:05:41.736Z,93.20
2017-11-06T14:08:08.412Z,93.10
2017-11-06T14:10:35.095Z,93.10
2017-11-06T14:13:02.498Z,93.00
2017-11-06T14:15:29.147Z,93.00
2017-11-06T14:17:55.841Z,92.40
2017-11-06T14:20:23.227Z,92.40
2017-11-06T14:22:49.951Z,92.40
2017-11-06T14:25:17.378Z,91.90
2017-11-06T14:27:44.011Z,91.90
2017-11-06T14:30:10.707Z,92.60
2017-11-06T14:32:37.384Z,92.60
2017-11-06T14:35:04.040Z,92.50
2017-11-06T14:37:30.737Z,92.30
2017-11-06T14:39:57.407Z,92.30
2017-11-06T14:42:24.033Z,92.10
2017-11-06T14:44:50.709Z,91.50
2017-11-06T14:47:17.358Z,91.60
2017-11-06T14:49:43.999Z,91.80
2017-11-06T14:52:10.666Z,92.00
2017-11-06T14:54:38.123Z,92.20
2017-11-06T14:57:05.599Z,92.10
2017-11-06T14:59:32.958Z,92.00
2017-11-06T15:02:00.476Z,91.70
2017-11-06T15:04:27.142Z,91.80
2017-11-06T15:06:53.819Z,91.70
2017-11-06T15:09:21.432Z,92.00
2017-11-06T15:11:48.188Z,92.00
2017-11-06T15:14:14.889Z,92.70
2017-11-06T15:16:41.654Z,92.60
2017-11-06T15:19:08.326Z,92.40
2017-11-06T15:21:35.012Z,92.70
2017-11-06T15:24:01.826Z,91.40
2017-11-06T15:26:29.254Z,91.70
2017-11-06T15:28:55.931Z,91.70
2017-11-06T15:31:23.335Z,91.50
2017-11-06T15:33:49.962Z,91.50
2017-11-06T15:36:16.584Z,92.20
2017-11-06T15:38:43.972Z,92.50
2017-11-06T15:41:10.642Z,92.50
2017-11-06T15:43:37.313Z,92.20
2017-11-06T15:46:04.010Z,92.40
2017-11-06T15:48:30.662Z,92.60
2017-11-06T15:50:57.290Z,92.30
2017-11-06T15:53:23.964Z,92.50
2017-11-06T15:55:50.623Z,92.60
2017-11-06T15:58:17.250Z,92.50
2017-11-06T16:00:43.908Z,92.40
2017-11-06T16:03:10.610Z,92.50
2017-11-06T16:05:37.270Z,92.80
2017-11-06T16:08:04.007Z,92.40
2017-11-06T16:10:30.648Z,92.50
2017-11-06T16:12:57.326Z,92.70
2017-11-06T16:15:24.769Z,92.70
2017-11-06T16:17:51.408Z,92.70
2017-11-06T16:20:18.095Z,92.70
2017-11-06T16:22:44.782Z,92.30
2017-11-06T16:25:11.435Z,92.70
2017-11-06T16:27:38.086Z,93.10
2017-11-06T16:30:04.764Z,93.70
2017-11-06T16:32:31.414Z,93.70
2017-11-06T16:35:04.916Z,93.60
2017-11-06T16:37:31.586Z,93.90
2017-11-06T16:39:58.291Z,94.00
2017-11-06T16:42:24.993Z,94.50
2017-11-06T16:44:51.625Z,94.40
2017-11-06T16:47:18.280Z,93.80
2017-11-06T16:49:44.977Z,93.90
2017-11-06T16:52:11.651Z,93.90
2017-11-06T16:54:38.314Z,94.00
2017-11-06T16:57:05.023Z,93.90
2017-11-06T16:59:31.824Z,94.10
2017-11-06T17:01:59.308Z,94.20
2017-11-06T17:04:26.010Z,94.20
2017-11-06T17:06:52.690Z,94.30
2017-11-06T17:09:19.482Z,94.30
2017-11-06T17:11:46.325Z,94.40
2017-11-06T17:14:13.007Z,94.30
2017-11-06T17:16:40.430Z,94.60
2017-11-06T17:19:07.115Z,94.60
2017-11-06T17:21:34.556Z,94.50
2017-11-06T17:24:01.212Z,94.50
2017-11-06T17:26:28.656Z,94.10
2017-11-06T17:28:55.338Z,94.10
2017-11-06T17:31:22.021Z,94.00
2017-11-06T17:33:48.711Z,93.90
2017-11-06T17:36:16.123Z,94.20
2017-11-06T17:38:42.783Z,94.20
2017-11-06T17:41:09.442Z,94.20
2017-11-06T17:43:36.831Z,94.30
2017-11-06T17:46:03.506Z,94.30
2017-11-06T17:48:30.211Z,94.30
2017-11-06T17:50:56.852Z,94.30
2017-11-06T17:53:23.543Z,94.20
2017-11-06T17:55:50.263Z,94.10
2017-11-06T17:58:16.966Z,94.10
2017-11-06T18:00:44.448Z,94.10
2017-11-06T18:03:11.175Z,94.10
2017-11-06T18:05:39.451Z,94.20
2017-11-06T18:08:06.871Z,93.90
2017-11-06T18:10:33.548Z,93.90
2017-11-06T18:13:00.974Z,94.20
2017-11-06T18:15:27.678Z,94.20
2017-11-06T18:17:54.373Z,94.50
2017-11-06T18:20:21.150Z,94.70
2017-11-06T18:22:47.809Z,94.90
2017-11-06T18:25:14.522Z,94.70
2017-11-06T18:27:41.900Z,94.80
2017-11-06T18:30:09.388Z,94.90
2017-11-06T18:32:36.113Z,94.90
2017-11-06T18:35:02.809Z,94.90
2017-11-06T18:37:29.478Z,94.90
2017-11-06T18:39:56.924Z,94.90
2017-11-06T18:42:24.515Z,94.90
2017-11-06T18:44:51.216Z,94.80
2017-11-06T18:47:17.884Z,94.60
2017-11-06T18:49:44.554Z,94.70
2017-11-06T18:52:11.207Z,94.50
2017-11-06T18:54:38.859Z,94.50
2017-11-06T18:57:05.493Z,94.70
2017-11-06T18:59:32.910Z,94.30
2017-11-06T19:01:59.611Z,94.30
2017-11-06T19:04:26.297Z,94.40
2017-11-06T19:06:52.984Z,94.50
2017-11-06T19:09:19.658Z,94.40
2017-11-06T19:11:46.309Z,94.10
2017-11-06T19:14:12.995Z,94.10
2017-11-06T19:16:40.462Z,94.00
2017-11-06T19:19:07.860Z,93.90
2017-11-06T19:21:34.650Z,94.30
2017-11-06T19:24:01.437Z,93.90
2017-11-06T19:26:28.974Z,93.80
2017-11-06T19:28:56.366Z,94.10
2017-11-06T19:31:23.746Z,94.00
2017-11-06T19:33:51.151Z,93.80
2017-11-06T19:36:18.570Z,93.60
2017-11-06T19:38:45.238Z,93.50
2017-11-06T19:41:11.933Z,93.50
2017-11-06T19:43:38.597Z,93.80
2017-11-06T19:46:05.343Z,93.60
2017-11-06T19:48:32.004Z,93.50
2017-11-06T19:50:59.590Z,95.80
2017-11-06T19:53:27.015Z,92.20
2017-11-06T19:57:13.274Z,91.90
2017-11-06T20:00:45.834Z,92.30
2017-11-06T20:03:12.288Z,92.40
2017-11-06T20:05:38.765Z,92.40
2017-11-06T20:08:05.318Z,92.50
2017-11-06T20:10:31.781Z,92.50
2017-11-06T20:12:58.226Z,92.50
2017-11-06T20:15:24.708Z,92.50
2017-11-06T20:17:51.556Z,92.40
2017-11-06T20:20:18.038Z,92.60
2017-11-06T20:22:44.519Z,92.90
2017-11-06T20:25:11.720Z,92.50
2017-11-06T20:27:38.194Z,92.50
2017-11-06T20:30:05.523Z,92.40
2017-11-06T20:32:32.016Z,92.40
2017-11-06T20:34:58.460Z,92.60
2017-11-06T20:37:24.998Z,92.40
2017-11-06T20:40:48.908Z,99.90
2017-11-06T20:45:09.963Z,91.70
2017-11-06T21:02:58.359Z,99.90
2017-11-06T21:05:25.011Z,68.40
2017-11-06T21:07:52.479Z,77.30
2017-11-06T21:10:19.862Z,80.00
2017-11-06T21:12:46.525Z,79.80
2017-11-06T21:15:13.194Z,80.90
2017-11-06T21:17:39.859Z,81.50
2017-11-06T21:20:07.251Z,81.60
2017-11-06T21:22:33.984Z,81.60
2017-11-06T21:30:16.484Z,53.10
2017-11-06T21:32:43.131Z,51.10
2017-11-06T21:35:09.768Z,51.40
2017-11-06T21:37:36.471Z,57.20
2017-11-06T21:40:03.104Z,62.50
2017-11-06T21:42:29.807Z,70.70
2017-11-06T21:44:56.546Z,77.10
2017-11-06T21:47:23.176Z,83.00
2017-11-06T21:49:49.874Z,87.10
2017-11-06T21:52:16.637Z,89.40
2017-11-06T21:54:43.306Z,90.70
2017-11-06T21:57:09.992Z,92.00
2017-11-06T21:59:37.455Z,94.10
2017-11-06T22:02:04.927Z,94.70
2017-11-06T22:04:31.606Z,94.70
2017-11-06T22:06:59.082Z,96.00
2017-11-06T22:09:25.766Z,96.00
2017-11-06T22:11:53.223Z,96.50
2017-11-06T22:14:20.652Z,96.60
2017-11-06T22:16:47.335Z,96.50
2017-11-06T22:19:14.024Z,96.80
2017-11-06T22:21:40.775Z,96.90
2017-11-06T22:24:07.459Z,97.10
2017-11-06T22:26:34.163Z,97.40
2017-11-06T22:29:00.871Z,97.10
2017-11-06T22:31:27.528Z,97.30
2017-11-06T22:33:54.222Z,97.20
2017-11-06T22:36:21.695Z,97.20
2017-11-06T22:38:49.103Z,97.10
2017-11-06T22:41:15.778Z,97.10
2017-11-06T22:43:42.493Z,97.00
2017-11-06T22:46:09.220Z,96.80
2017-11-06T22:48:35.904Z,96.90
2017-11-06T22:51:02.610Z,96.90
2017-11-06T22:53:29.327Z,96.90
2017-11-06T22:55:56.053Z,97.00
2017-11-06T22:58:23.600Z,96.70
2017-11-06T23:00:50.296Z,96.70
2017-11-06T23:03:17.035Z,96.40
2017-11-06T23:05:43.751Z,96.10
2017-11-06T23:08:11.138Z,96.30
2017-11-06T23:10:37.886Z,96.30
2017-11-06T23:13:04.578Z,96.50
2017-11-06T23:15:31.248Z,96.40
2017-11-06T23:17:57.947Z,96.30
2017-11-06T23:20:24.678Z,95.90
2017-11-06T23:22:52.076Z,96.10
2017-11-06T23:25:19.475Z,96.30
2017-11-06T23:27:46.148Z,96.30
2017-11-06T23:30:12.794Z,96.30
2017-11-06T23:32:39.494Z,96.30
2017-11-06T23:35:06.199Z,96.10
2017-11-06T23:37:32.942Z,96.20
2017-11-06T23:40:00.424Z,95.70
2017-11-06T23:42:27.125Z,95.60
2017-11-06T23:44:53.816Z,95.50
2017-11-06T23:47:20.544Z,95.50
2017-11-06T23:49:48.028Z,95.40
2017-11-06T23:52:14.750Z,95.40
2017-11-06T23:54:42.285Z,95.20
2017-11-06T23:57:09.000Z,95.20
2017-11-06T23:59:36.495Z,95.10
